Terminal Aerodrome Forecast
Issued by NWS

Home | Current Version | Previous Version | Text Only | Print | Product List | Glossary On
Versions: 1 2 3 4 5 6 7 8 9 10 11 12
411
FTUS43 KLSX 201521 AAA
TAFUIN
TAF AMD
KUIN 201521Z 2015/2112 30013KT P6SM VCSH OVC050
     FM201600 30011G20KT P6SM -SHRA BKN035
     FM201800 30013G22KT P6SM SCT110
     FM210100 32009KT P6SM FEW200=

USA.gov is the U.S. government's official web portal to all federal, state and local government web resources and services.